sensor_id;sensor_type;location;lat;lon;timestamp;temperature;humidity
17529;DHT22;8882;53.192;8.184;2024-01-30T05:17:13;6.10;99.90
17529;DHT22;8882;53.192;8.184;2024-01-30T05:19:39;6.10;99.90
17529;DHT22;8882;53.192;8.184;2024-01-30T05:22:04;6.10;99.90
17529;DHT22;8882;53.192;8.184;2024-01-30T05:24:30;6.10;99.90
17529;DHT22;8882;53.192;8.184;2024-01-30T05:26:55;6.10;99.90
17529;DHT22;8882;53.192;8.184;2024-01-30T05:29:21;6.10;99.90
17529;DHT22;8882;53.192;8.184;2024-01-30T05:31:46;6.10;99.90
17529;DHT22;8882;53.192;8.184;2024-01-30T05:34:12;6.10;99.90
17529;DHT22;8882;53.192;8.184;2024-01-30T05:36:37;6.10;99.90
17529;DHT22;8882;53.192;8.184;2024-01-30T05:39:03;6.10;99.90
17529;DHT22;8882;53.192;8.184;2024-01-30T05:41:28;6.00;99.90
17529;DHT22;8882;53.192;8.184;2024-01-30T05:43:54;6.10;99.90
17529;DHT22;8882;53.192;8.184;2024-01-30T05:46:19;6.10;99.90
17529;DHT22;8882;53.192;8.184;2024-01-30T05:48:45;6.10;99.90
17529;DHT22;8882;53.192;8.184;2024-01-30T05:51:10;6.10;99.90
17529;DHT22;8882;53.192;8.184;2024-01-30T05:53:36;6.10;99.90
17529;DHT22;8882;53.192;8.184;2024-01-30T05:56:02;6.10;99.90
17529;DHT22;8882;53.192;8.184;2024-01-30T05:58:28;6.10;99.90
17529;DHT22;8882;53.192;8.184;2024-01-30T06:00:54;6.10;99.90
17529;DHT22;8882;53.192;8.184;2024-01-30T06:03:19;6.10;99.90
17529;DHT22;8882;53.192;8.184;2024-01-30T06:05:45;6.10;99.90
17529;DHT22;8882;53.192;8.184;2024-01-30T06:08:10;6.10;99.90
17529;DHT22;8882;53.192;8.184;2024-01-30T06:10:35;6.10;99.90
17529;DHT22;8882;53.192;8.184;2024-01-30T06:13:01;6.10;99.90
17529;DHT22;8882;53.192;8.184;2024-01-30T06:15:27;6.10;99.90
17529;DHT22;8882;53.192;8.184;2024-01-30T06:17:55;6.10;99.90
17529;DHT22;8882;53.192;8.184;2024-01-30T06:20:20;6.10;99.90
17529;DHT22;8882;53.192;8.184;2024-01-30T06:22:46;6.10;99.90
17529;DHT22;8882;53.192;8.184;2024-01-30T06:25:11;6.10;99.90
17529;DHT22;8882;53.192;8.184;2024-01-30T06:27:37;6.10;99.90
17529;DHT22;8882;53.192;8.184;2024-01-30T06:30:04;6.10;99.90
17529;DHT22;8882;53.192;8.184;2024-01-30T06:32:29;6.10;99.90
17529;DHT22;8882;53.192;8.184;2024-01-30T06:35:00;6.10;99.90
17529;DHT22;8882;53.192;8.184;2024-01-30T06:37:25;6.20;99.90
17529;DHT22;8882;53.192;8.184;2024-01-30T06:39:51;6.20;99.90
17529;DHT22;8882;53.192;8.184;2024-01-30T06:42:17;6.20;99.90
17529;DHT22;8882;53.192;8.184;2024-01-30T06:44:43;6.20;99.90
17529;DHT22;8882;53.192;8.184;2024-01-30T06:47:08;6.20;99.90
17529;DHT22;8882;53.192;8.184;2024-01-30T06:49:34;6.10;99.90
17529;DHT22;8882;53.192;8.184;2024-01-30T06:52:00;6.10;99.90
17529;DHT22;8882;53.192;8.184;2024-01-30T06:54:25;6.10;99.90
17529;DHT22;8882;53.192;8.184;2024-01-30T06:56:51;6.10;99.90
17529;DHT22;8882;53.192;8.184;2024-01-30T06:59:16;6.10;99.90
17529;DHT22;8882;53.192;8.184;2024-01-30T07:01:42;6.10;99.90
17529;DHT22;8882;53.192;8.184;2024-01-30T07:04:07;6.10;99.90
17529;DHT22;8882;53.192;8.184;2024-01-30T07:06:33;6.10;99.90
17529;DHT22;8882;53.192;8.184;2024-01-30T07:08:58;6.10;99.90
17529;DHT22;8882;53.192;8.184;2024-01-30T07:11:24;6.10;99.90
17529;DHT22;8882;53.192;8.184;2024-01-30T07:13:53;6.10;99.90
17529;DHT22;8882;53.192;8.184;2024-01-30T07:16:19;6.10;99.90
17529;DHT22;8882;53.192;8.184;2024-01-30T07:18:44;6.10;99.90
17529;DHT22;8882;53.192;8.184;2024-01-30T07:21:10;6.10;99.90
17529;DHT22;8882;53.192;8.184;2024-01-30T07:23:35;6.20;99.90
17529;DHT22;8882;53.192;8.184;2024-01-30T07:26:04;6.20;99.90
17529;DHT22;8882;53.192;8.184;2024-01-30T07:28:30;6.20;99.90
17529;DHT22;8882;53.192;8.184;2024-01-30T07:30:55;6.20;99.90
17529;DHT22;8882;53.192;8.184;2024-01-30T07:33:21;6.20;99.90
17529;DHT22;8882;53.192;8.184;2024-01-30T07:35:46;6.20;99.90
17529;DHT22;8882;53.192;8.184;2024-01-30T07:38:12;6.20;99.90
17529;DHT22;8882;53.192;8.184;2024-01-30T07:40:37;6.20;99.90
17529;DHT22;8882;53.192;8.184;2024-01-30T07:43:03;6.30;99.90
17529;DHT22;8882;53.192;8.184;2024-01-30T07:45:29;6.30;99.90
17529;DHT22;8882;53.192;8.184;2024-01-30T07:47:58;6.30;99.90
17529;DHT22;8882;53.192;8.184;2024-01-30T07:50:24;6.30;99.90
17529;DHT22;8882;53.192;8.184;2024-01-30T07:52:50;6.30;99.90
17529;DHT22;8882;53.192;8.184;2024-01-30T07:55:22;6.40;99.90
17529;DHT22;8882;53.192;8.184;2024-01-30T07:57:54;6.40;99.90
17529;DHT22;8882;53.192;8.184;2024-01-30T08:00:20;6.40;99.90
17529;DHT22;8882;53.192;8.184;2024-01-30T08:02:46;6.40;99.90
17529;DHT22;8882;53.192;8.184;2024-01-30T08:05:12;6.40;99.90
17529;DHT22;8882;53.192;8.184;2024-01-30T08:07:39;6.40;99.90
17529;DHT22;8882;53.192;8.184;2024-01-30T08:10:06;7.10;99.90
17529;DHT22;8882;53.192;8.184;2024-01-30T08:12:31;7.20;99.90
17529;DHT22;8882;53.192;8.184;2024-01-30T08:14:57;7.10;99.90
17529;DHT22;8882;53.192;8.184;2024-01-30T08:17:22;7.00;99.90
17529;DHT22;8882;53.192;8.184;2024-01-30T08:19:48;6.80;99.90
17529;DHT22;8882;53.192;8.184;2024-01-30T08:22:13;6.80;99.90
17529;DHT22;8882;53.192;8.184;2024-01-30T08:24:39;6.80;99.90
17529;DHT22;8882;53.192;8.184;2024-01-30T08:27:06;6.80;99.90
17529;DHT22;8882;53.192;8.184;2024-01-30T08:29:35;6.80;99.90
17529;DHT22;8882;53.192;8.184;2024-01-30T08:32:00;6.80;99.90
17529;DHT22;8882;53.192;8.184;2024-01-30T08:34:26;6.80;99.90
17529;DHT22;8882;53.192;8.184;2024-01-30T08:36:51;6.80;99.90
17529;DHT22;8882;53.192;8.184;2024-01-30T08:39:17;6.90;99.90
17529;DHT22;8882;53.192;8.184;2024-01-30T08:41:42;6.90;99.90
17529;DHT22;8882;53.192;8.184;2024-01-30T08:44:07;7.00;99.90
17529;DHT22;8882;53.192;8.184;2024-01-30T08:46:33;7.00;99.90
17529;DHT22;8882;53.192;8.184;2024-01-30T08:48:59;7.00;99.90
17529;DHT22;8882;53.192;8.184;2024-01-30T08:51:24;7.10;99.90
17529;DHT22;8882;53.192;8.184;2024-01-30T08:53:50;7.10;99.90
17529;DHT22;8882;53.192;8.184;2024-01-30T08:56:16;7.10;99.90
17529;DHT22;8882;53.192;8.184;2024-01-30T08:58:42;7.20;99.90
17529;DHT22;8882;53.192;8.184;2024-01-30T09:01:07;7.30;99.90
17529;DHT22;8882;53.192;8.184;2024-01-30T09:03:33;7.30;99.90
17529;DHT22;8882;53.192;8.184;2024-01-30T09:05:59;7.30;99.90
17529;DHT22;8882;53.192;8.184;2024-01-30T09:08:24;7.40;99.90
17529;DHT22;8882;53.192;8.184;2024-01-30T09:10:50;7.40;99.90
17529;DHT22;8882;53.192;8.184;2024-01-30T09:13:15;7.50;99.90
17529;DHT22;8882;53.192;8.184;2024-01-30T09:15:41;7.50;99.90
17529;DHT22;8882;53.192;8.184;2024-01-30T09:18:07;7.60;99.90
17529;DHT22;8882;53.192;8.184;2024-01-30T09:20:33;7.70;99.90
17529;DHT22;8882;53.192;8.184;2024-01-30T09:22:58;7.80;99.90
17529;DHT22;8882;53.192;8.184;2024-01-30T09:25:24;7.80;99.90
17529;DHT22;8882;53.192;8.184;2024-01-30T09:27:49;7.90;99.90
17529;DHT22;8882;53.192;8.184;2024-01-30T09:30:15;7.90;99.90
17529;DHT22;8882;53.192;8.184;2024-01-30T09:32:41;8.00;99.90
17529;DHT22;8882;53.192;8.184;2024-01-30T09:35:07;8.50;99.90
17529;DHT22;8882;53.192;8.184;2024-01-30T09:37:32;8.40;99.90
17529;DHT22;8882;53.192;8.184;2024-01-30T09:39:58;8.30;99.90
17529;DHT22;8882;53.192;8.184;2024-01-30T09:42:34;8.30;99.90
17529;DHT22;8882;53.192;8.184;2024-01-30T09:45:04;8.20;99.90
17529;DHT22;8882;53.192;8.184;2024-01-30T09:47:40;8.20;99.90
17529;DHT22;8882;53.192;8.184;2024-01-30T09:50:08;8.20;99.90
17529;DHT22;8882;53.192;8.184;2024-01-30T09:52:34;8.20;99.90
17529;DHT22;8882;53.192;8.184;2024-01-30T09:55:00;8.20;99.90
17529;DHT22;8882;53.192;8.184;2024-01-30T09:57:26;8.20;99.90
17529;DHT22;8882;53.192;8.184;2024-01-30T09:59:52;8.30;99.90
17529;DHT22;8882;53.192;8.184;2024-01-30T10:02:19;8.30;99.90
17529;DHT22;8882;53.192;8.184;2024-01-30T10:04:50;8.30;99.90
17529;DHT22;8882;53.192;8.184;2024-01-30T10:07:17;8.30;99.90
17529;DHT22;8882;53.192;8.184;2024-01-30T10:09:43;8.40;99.90
17529;DHT22;8882;53.192;8.184;2024-01-30T10:12:12;8.40;99.90
17529;DHT22;8882;53.192;8.184;2024-01-30T10:14:38;8.50;99.90
17529;DHT22;8882;53.192;8.184;2024-01-30T10:17:04;8.60;99.90
17529;DHT22;8882;53.192;8.184;2024-01-30T10:19:31;8.60;99.90
17529;DHT22;8882;53.192;8.184;2024-01-30T10:21:56;8.70;99.90
17529;DHT22;8882;53.192;8.184;2024-01-30T10:24:26;8.80;99.90
17529;DHT22;8882;53.192;8.184;2024-01-30T10:26:52;8.80;99.90
17529;DHT22;8882;53.192;8.184;2024-01-30T10:29:18;8.90;99.90
17529;DHT22;8882;53.192;8.184;2024-01-30T10:31:43;8.90;99.90
17529;DHT22;8882;53.192;8.184;2024-01-30T10:34:09;9.00;99.90
17529;DHT22;8882;53.192;8.184;2024-01-30T10:36:39;9.00;99.90
17529;DHT22;8882;53.192;8.184;2024-01-30T10:39:07;9.10;99.90
17529;DHT22;8882;53.192;8.184;2024-01-30T10:41:54;9.10;99.90
17529;DHT22;8882;53.192;8.184;2024-01-30T10:44:22;9.20;99.90
17529;DHT22;8882;53.192;8.184;2024-01-30T10:46:53;9.20;99.90
17529;DHT22;8882;53.192;8.184;2024-01-30T10:49:22;9.20;99.90
17529;DHT22;8882;53.192;8.184;2024-01-30T10:51:49;9.30;99.90
17529;DHT22;8882;53.192;8.184;2024-01-30T10:54:15;9.30;99.90
17529;DHT22;8882;53.192;8.184;2024-01-30T10:56:42;9.40;99.90
17529;DHT22;8882;53.192;8.184;2024-01-30T10:59:09;9.50;99.90
17529;DHT22;8882;53.192;8.184;2024-01-30T11:01:35;9.50;99.90
17529;DHT22;8882;53.192;8.184;2024-01-30T11:04:01;9.50;99.90
17529;DHT22;8882;53.192;8.184;2024-01-30T11:06:26;9.60;99.90
17529;DHT22;8882;53.192;8.184;2024-01-30T11:09:02;9.70;99.90
17529;DHT22;8882;53.192;8.184;2024-01-30T11:11:59;9.70;99.90
17529;DHT22;8882;53.192;8.184;2024-01-30T11:14:26;9.70;99.90
17529;DHT22;8882;53.192;8.184;2024-01-30T11:16:52;9.70;99.90
17529;DHT22;8882;53.192;8.184;2024-01-30T11:19:24;9.80;99.90
17529;DHT22;8882;53.192;8.184;2024-01-30T11:21:54;9.80;99.90
17529;DHT22;8882;53.192;8.184;2024-01-30T11:24:22;9.80;99.90
17529;DHT22;8882;53.192;8.184;2024-01-30T11:26:49;9.90;99.90
17529;DHT22;8882;53.192;8.184;2024-01-30T11:29:17;9.90;99.90
17529;DHT22;8882;53.192;8.184;2024-01-30T11:31:52;9.90;99.90
17529;DHT22;8882;53.192;8.184;2024-01-30T11:34:19;10.00;99.90
17529;DHT22;8882;53.192;8.184;2024-01-30T11:36:51;10.00;99.90
17529;DHT22;8882;53.192;8.184;2024-01-30T11:39:20;10.00;99.90
17529;DHT22;8882;53.192;8.184;2024-01-30T11:41:46;10.10;99.90
17529;DHT22;8882;53.192;8.184;2024-01-30T11:44:13;10.10;99.90
17529;DHT22;8882;53.192;8.184;2024-01-30T11:46:38;10.10;99.90
17529;DHT22;8882;53.192;8.184;2024-01-30T11:49:04;10.10;99.90
17529;DHT22;8882;53.192;8.184;2024-01-30T11:51:30;10.10;99.90
17529;DHT22;8882;53.192;8.184;2024-01-30T11:53:57;10.20;99.90
17529;DHT22;8882;53.192;8.184;2024-01-30T11:56:24;10.20;99.90
17529;DHT22;8882;53.192;8.184;2024-01-30T11:58:50;10.20;99.90
17529;DHT22;8882;53.192;8.184;2024-01-30T12:01:17;10.30;99.90
17529;DHT22;8882;53.192;8.184;2024-01-30T12:03:49;10.30;99.90
17529;DHT22;8882;53.192;8.184;2024-01-30T12:06:15;10.30;99.90
17529;DHT22;8882;53.192;8.184;2024-01-30T12:08:41;10.40;99.90
17529;DHT22;8882;53.192;8.184;2024-01-30T12:11:06;10.40;99.90
17529;DHT22;8882;53.192;8.184;2024-01-30T12:13:32;10.40;99.90
17529;DHT22;8882;53.192;8.184;2024-01-30T12:15:58;10.40;99.90
17529;DHT22;8882;53.192;8.184;2024-01-30T12:18:23;10.40;99.90
17529;DHT22;8882;53.192;8.184;2024-01-30T12:20:59;10.50;99.90
17529;DHT22;8882;53.192;8.184;2024-01-30T12:23:25;10.40;99.90
17529;DHT22;8882;53.192;8.184;2024-01-30T12:25:52;10.40;99.90
17529;DHT22;8882;53.192;8.184;2024-01-30T12:28:17;10.50;99.90
17529;DHT22;8882;53.192;8.184;2024-01-30T12:30:43;10.40;99.90
17529;DHT22;8882;53.192;8.184;2024-01-30T12:33:08;10.40;99.90
17529;DHT22;8882;53.192;8.184;2024-01-30T12:35:35;10.40;99.90
17529;DHT22;8882;53.192;8.184;2024-01-30T12:38:01;10.50;99.90
17529;DHT22;8882;53.192;8.184;2024-01-30T12:40:27;10.50;99.90
17529;DHT22;8882;53.192;8.184;2024-01-30T12:42:53;10.50;99.90
17529;DHT22;8882;53.192;8.184;2024-01-30T12:45:19;10.50;99.90
17529;DHT22;8882;53.192;8.184;2024-01-30T12:47:46;10.50;99.90
17529;DHT22;8882;53.192;8.184;2024-01-30T12:50:12;10.50;99.90
17529;DHT22;8882;53.192;8.184;2024-01-30T12:52:42;10.50;99.90
17529;DHT22;8882;53.192;8.184;2024-01-30T12:55:07;10.50;99.90
17529;DHT22;8882;53.192;8.184;2024-01-30T12:57:33;10.50;99.90
17529;DHT22;8882;53.192;8.184;2024-01-30T12:59:58;10.50;99.90
17529;DHT22;8882;53.192;8.184;2024-01-30T13:02:24;10.50;99.90
17529;DHT22;8882;53.192;8.184;2024-01-30T13:04:50;10.50;99.90
17529;DHT22;8882;53.192;8.184;2024-01-30T13:07:15;10.50;99.90
17529;DHT22;8882;53.192;8.184;2024-01-30T13:09:41;10.50;99.90
17529;DHT22;8882;53.192;8.184;2024-01-30T13:12:06;10.50;99.90
17529;DHT22;8882;53.192;8.184;2024-01-30T13:14:32;10.50;99.90
17529;DHT22;8882;53.192;8.184;2024-01-30T13:16:58;10.50;99.90
17529;DHT22;8882;53.192;8.184;2024-01-30T13:19:24;10.50;99.90
17529;DHT22;8882;53.192;8.184;2024-01-30T13:21:49;10.40;99.90
17529;DHT22;8882;53.192;8.184;2024-01-30T13:24:15;10.40;99.90
17529;DHT22;8882;53.192;8.184;2024-01-30T13:26:42;10.40;99.90
17529;DHT22;8882;53.192;8.184;2024-01-30T13:29:08;10.40;99.90
17529;DHT22;8882;53.192;8.184;2024-01-30T13:31:33;10.30;99.90
17529;DHT22;8882;53.192;8.184;2024-01-30T13:34:00;10.40;99.90
17529;DHT22;8882;53.192;8.184;2024-01-30T13:36:25;10.40;99.90
17529;DHT22;8882;53.192;8.184;2024-01-30T13:38:51;10.40;99.90
17529;DHT22;8882;53.192;8.184;2024-01-30T13:41:16;10.50;99.90
17529;DHT22;8882;53.192;8.184;2024-01-30T13:43:43;10.50;99.90
17529;DHT22;8882;53.192;8.184;2024-01-30T13:46:09;10.40;99.90
17529;DHT22;8882;53.192;8.184;2024-01-30T13:48:35;10.50;99.90
17529;DHT22;8882;53.192;8.184;2024-01-30T13:51:01;10.50;99.90
17529;DHT22;8882;53.192;8.184;2024-01-30T13:53:26;10.60;99.90
17529;DHT22;8882;53.192;8.184;2024-01-30T13:55:52;10.60;99.90
17529;DHT22;8882;53.192;8.184;2024-01-30T13:58:17;10.60;99.90
17529;DHT22;8882;53.192;8.184;2024-01-30T14:00:43;10.60;99.90
17529;DHT22;8882;53.192;8.184;2024-01-30T14:03:08;10.60;99.90
17529;DHT22;8882;53.192;8.184;2024-01-30T14:05:34;10.60;99.90
17529;DHT22;8882;53.192;8.184;2024-01-30T14:08:00;10.60;99.90
17529;DHT22;8882;53.192;8.184;2024-01-30T14:10:26;10.60;99.90
17529;DHT22;8882;53.192;8.184;2024-01-30T14:12:52;10.70;99.90
17529;DHT22;8882;53.192;8.184;2024-01-30T14:15:17;10.70;99.90
17529;DHT22;8882;53.192;8.184;2024-01-30T14:17:44;10.70;99.90
17529;DHT22;8882;53.192;8.184;2024-01-30T14:20:10;10.80;99.90
17529;DHT22;8882;53.192;8.184;2024-01-30T14:22:36;10.80;99.90
17529;DHT22;8882;53.192;8.184;2024-01-30T14:25:02;10.80;99.90
17529;DHT22;8882;53.192;8.184;2024-01-30T14:27:29;10.80;99.90
17529;DHT22;8882;53.192;8.184;2024-01-30T14:29:56;10.80;99.90
17529;DHT22;8882;53.192;8.184;2024-01-30T14:32:21;10.80;99.90
17529;DHT22;8882;53.192;8.184;2024-01-30T14:34:47;10.80;99.90
17529;DHT22;8882;53.192;8.184;2024-01-30T14:37:12;10.90;99.90
17529;DHT22;8882;53.192;8.184;2024-01-30T14:39:38;10.80;99.90
17529;DHT22;8882;53.192;8.184;2024-01-30T14:42:06;10.80;99.90
17529;DHT22;8882;53.192;8.184;2024-01-30T14:44:31;10.90;99.90
17529;DHT22;8882;53.192;8.184;2024-01-30T14:46:57;10.80;99.90
17529;DHT22;8882;53.192;8.184;2024-01-30T14:49:23;10.80;99.90
17529;DHT22;8882;53.192;8.184;2024-01-30T14:51:48;10.80;99.90
17529;DHT22;8882;53.192;8.184;2024-01-30T14:54:14;10.80;99.90
17529;DHT22;8882;53.192;8.184;2024-01-30T14:56:39;10.80;99.90
17529;DHT22;8882;53.192;8.184;2024-01-30T14:59:05;10.80;99.90
17529;DHT22;8882;53.192;8.184;2024-01-30T15:01:31;10.80;99.90
17529;DHT22;8882;53.192;8.184;2024-01-30T15:03:56;10.70;99.90
17529;DHT22;8882;53.192;8.184;2024-01-30T15:06:22;10.70;99.90
17529;DHT22;8882;53.192;8.184;2024-01-30T15:08:50;10.70;99.90
17529;DHT22;8882;53.192;8.184;2024-01-30T15:11:15;10.60;99.90
17529;DHT22;8882;53.192;8.184;2024-01-30T15:13:41;10.60;99.90
17529;DHT22;8882;53.192;8.184;2024-01-30T15:16:06;10.60;99.90
17529;DHT22;8882;53.192;8.184;2024-01-30T15:18:32;10.50;99.90
17529;DHT22;8882;53.192;8.184;2024-01-30T15:20:58;10.50;99.90
17529;DHT22;8882;53.192;8.184;2024-01-30T15:23:23;10.40;99.90
17529;DHT22;8882;53.192;8.184;2024-01-30T15:25:49;10.30;99.90
17529;DHT22;8882;53.192;8.184;2024-01-30T15:28:14;10.30;99.90
17529;DHT22;8882;53.192;8.184;2024-01-30T15:30:41;10.20;99.90
17529;DHT22;8882;53.192;8.184;2024-01-30T15:33:10;10.10;99.90
17529;DHT22;8882;53.192;8.184;2024-01-30T15:35:35;10.10;99.90
17529;DHT22;8882;53.192;8.184;2024-01-30T15:38:01;10.10;99.90
17529;DHT22;8882;53.192;8.184;2024-01-30T15:40:26;10.00;99.90
17529;DHT22;8882;53.192;8.184;2024-01-30T15:42:52;10.00;99.90
17529;DHT22;8882;53.192;8.184;2024-01-30T15:45:17;10.00;99.90
17529;DHT22;8882;53.192;8.184;2024-01-30T15:47:43;9.90;99.90
17529;DHT22;8882;53.192;8.184;2024-01-30T15:50:11;9.90;99.90
17529;DHT22;8882;53.192;8.184;2024-01-30T15:52:36;9.90;99.90
17529;DHT22;8882;53.192;8.184;2024-01-30T15:55:02;9.90;99.90
17529;DHT22;8882;53.192;8.184;2024-01-30T15:57:28;9.90;99.90
17529;DHT22;8882;53.192;8.184;2024-01-30T15:59:53;9.80;99.90
17529;DHT22;8882;53.192;8.184;2024-01-30T16:02:19;9.80;99.90
17529;DHT22;8882;53.192;8.184;2024-01-30T16:04:46;9.80;99.90
17529;DHT22;8882;53.192;8.184;2024-01-30T16:07:11;9.80;99.90
17529;DHT22;8882;53.192;8.184;2024-01-30T16:09:37;9.70;99.90
17529;DHT22;8882;53.192;8.184;2024-01-30T16:12:03;9.70;99.90
17529;DHT22;8882;53.192;8.184;2024-01-30T16:14:28;9.60;99.90
17529;DHT22;8882;53.192;8.184;2024-01-30T16:16:54;9.60;99.90
17529;DHT22;8882;53.192;8.184;2024-01-30T16:19:20;9.60;99.90
17529;DHT22;8882;53.192;8.184;2024-01-30T16:21:46;9.60;99.90
17529;DHT22;8882;53.192;8.184;2024-01-30T16:24:11;9.60;99.90
17529;DHT22;8882;53.192;8.184;2024-01-30T16:26:37;9.50;99.90
17529;DHT22;8882;53.192;8.184;2024-01-30T16:29:02;9.50;99.90
17529;DHT22;8882;53.192;8.184;2024-01-30T16:31:28;9.80;99.90
17529;DHT22;8882;53.192;8.184;2024-01-30T16:33:54;9.90;99.90
17529;DHT22;8882;53.192;8.184;2024-01-30T16:36:19;9.90;99.90
17529;DHT22;8882;53.192;8.184;2024-01-30T16:38:45;9.80;99.90
17529;DHT22;8882;53.192;8.184;2024-01-30T16:41:11;9.70;99.90
17529;DHT22;8882;53.192;8.184;2024-01-30T16:43:37;9.70;99.90
17529;DHT22;8882;53.192;8.184;2024-01-30T16:46:02;9.70;99.90
17529;DHT22;8882;53.192;8.184;2024-01-30T16:48:29;9.70;99.90
17529;DHT22;8882;53.192;8.184;2024-01-30T16:50:55;9.70;99.90
17529;DHT22;8882;53.192;8.184;2024-01-30T16:53:20;9.60;99.90
17529;DHT22;8882;53.192;8.184;2024-01-30T16:55:46;9.60;99.90
17529;DHT22;8882;53.192;8.184;2024-01-30T16:58:13;9.60;99.90
17529;DHT22;8882;53.192;8.184;2024-01-30T17:00:38;9.60;99.90
17529;DHT22;8882;53.192;8.184;2024-01-30T17:03:04;9.50;99.90
17529;DHT22;8882;53.192;8.184;2024-01-30T17:05:30;9.60;99.90
17529;DHT22;8882;53.192;8.184;2024-01-30T17:07:56;9.60;99.90
17529;DHT22;8882;53.192;8.184;2024-01-30T17:10:23;9.60;99.90
17529;DHT22;8882;53.192;8.184;2024-01-30T17:14:27;9.70;99.90
17529;DHT22;8882;53.192;8.184;2024-01-30T17:16:53;9.80;99.90
17529;DHT22;8882;53.192;8.184;2024-01-30T17:19:19;9.80;99.90
17529;DHT22;8882;53.192;8.184;2024-01-30T17:21:44;9.70;99.90
17529;DHT22;8882;53.192;8.184;2024-01-30T17:24:10;9.60;99.90
17529;DHT22;8882;53.192;8.184;2024-01-30T17:26:36;9.50;99.90
17529;DHT22;8882;53.192;8.184;2024-01-30T17:29:02;9.40;99.90
17529;DHT22;8882;53.192;8.184;2024-01-30T17:31:28;9.40;99.90
17529;DHT22;8882;53.192;8.184;2024-01-30T17:33:53;9.30;99.90
17529;DHT22;8882;53.192;8.184;2024-01-30T17:36:19;9.20;99.90
17529;DHT22;8882;53.192;8.184;2024-01-30T17:38:44;9.20;99.90
17529;DHT22;8882;53.192;8.184;2024-01-30T17:41:10;9.20;99.90
17529;DHT22;8882;53.192;8.184;2024-01-30T17:43:35;9.10;99.90
17529;DHT22;8882;53.192;8.184;2024-01-30T17:46:01;9.10;99.90
17529;DHT22;8882;53.192;8.184;2024-01-30T17:48:26;9.00;99.90
17529;DHT22;8882;53.192;8.184;2024-01-30T17:50:52;8.90;99.90
17529;DHT22;8882;53.192;8.184;2024-01-30T17:53:17;8.90;99.90
17529;DHT22;8882;53.192;8.184;2024-01-30T17:55:43;8.70;99.90
17529;DHT22;8882;53.192;8.184;2024-01-30T17:58:09;8.70;99.90
17529;DHT22;8882;53.192;8.184;2024-01-30T18:00:34;8.70;99.90
17529;DHT22;8882;53.192;8.184;2024-01-30T18:03:00;8.70;99.90
17529;DHT22;8882;53.192;8.184;2024-01-30T18:05:27;8.60;99.90
17529;DHT22;8882;53.192;8.184;2024-01-30T18:07:52;8.60;99.90
17529;DHT22;8882;53.192;8.184;2024-01-30T18:10:18;8.60;99.90
17529;DHT22;8882;53.192;8.184;2024-01-30T18:12:44;8.50;99.90
17529;DHT22;8882;53.192;8.184;2024-01-30T18:15:10;8.50;99.90
17529;DHT22;8882;53.192;8.184;2024-01-30T18:17:36;8.60;99.90
17529;DHT22;8882;53.192;8.184;2024-01-30T18:20:02;8.50;99.90
17529;DHT22;8882;53.192;8.184;2024-01-30T18:22:29;8.50;99.90
17529;DHT22;8882;53.192;8.184;2024-01-30T18:24:55;8.50;99.90
17529;DHT22;8882;53.192;8.184;2024-01-30T18:27:20;8.40;99.90
17529;DHT22;8882;53.192;8.184;2024-01-30T18:29:46;8.40;99.90
17529;DHT22;8882;53.192;8.184;2024-01-30T18:32:13;8.50;99.90
17529;DHT22;8882;53.192;8.184;2024-01-30T18:34:39;8.50;99.90
17529;DHT22;8882;53.192;8.184;2024-01-30T18:37:04;8.50;99.90
17529;DHT22;8882;53.192;8.184;2024-01-30T18:39:31;8.50;99.90
17529;DHT22;8882;53.192;8.184;2024-01-30T18:41:57;8.40;99.90
17529;DHT22;8882;53.192;8.184;2024-01-30T18:44:22;8.40;99.90
17529;DHT22;8882;53.192;8.184;2024-01-30T18:46:48;8.40;99.90
17529;DHT22;8882;53.192;8.184;2024-01-30T18:49:15;8.40;99.90
17529;DHT22;8882;53.192;8.184;2024-01-30T18:51:40;8.40;99.90
17529;DHT22;8882;53.192;8.184;2024-01-30T18:54:06;8.40;99.90
17529;DHT22;8882;53.192;8.184;2024-01-30T18:56:32;8.40;99.90
17529;DHT22;8882;53.192;8.184;2024-01-30T18:58:58;8.30;99.90
17529;DHT22;8882;53.192;8.184;2024-01-30T19:01:23;8.30;99.90
17529;DHT22;8882;53.192;8.184;2024-01-30T19:03:49;8.30;99.90
17529;DHT22;8882;53.192;8.184;2024-01-30T19:06:14;8.30;99.90
17529;DHT22;8882;53.192;8.184;2024-01-30T19:08:40;8.30;99.90
17529;DHT22;8882;53.192;8.184;2024-01-30T19:11:05;8.30;99.90
17529;DHT22;8882;53.192;8.184;2024-01-30T19:13:31;8.30;99.90
17529;DHT22;8882;53.192;8.184;2024-01-30T19:15:56;8.30;99.90
17529;DHT22;8882;53.192;8.184;2024-01-30T19:18:22;8.30;99.90
17529;DHT22;8882;53.192;8.184;2024-01-30T19:20:48;8.30;99.90
17529;DHT22;8882;53.192;8.184;2024-01-30T19:23:14;8.20;99.90
17529;DHT22;8882;53.192;8.184;2024-01-30T19:25:40;8.10;99.90
17529;DHT22;8882;53.192;8.184;2024-01-30T19:28:06;8.10;99.90
17529;DHT22;8882;53.192;8.184;2024-01-30T19:30:32;8.10;99.90
17529;DHT22;8882;53.192;8.184;2024-01-30T19:32:57;8.10;99.90
17529;DHT22;8882;53.192;8.184;2024-01-30T19:35:23;8.10;99.90
17529;DHT22;8882;53.192;8.184;2024-01-30T19:37:49;8.00;99.90
17529;DHT22;8882;53.192;8.184;2024-01-30T19:40:15;8.00;99.90
17529;DHT22;8882;53.192;8.184;2024-01-30T19:42:40;8.00;99.90
17529;DHT22;8882;53.192;8.184;2024-01-30T19:45:06;8.00;99.90
17529;DHT22;8882;53.192;8.184;2024-01-30T19:47:35;7.90;99.90
17529;DHT22;8882;53.192;8.184;2024-01-30T19:50:01;7.90;99.90
17529;DHT22;8882;53.192;8.184;2024-01-30T19:52:26;7.90;99.90
17529;DHT22;8882;53.192;8.184;2024-01-30T19:54:52;7.80;99.90
17529;DHT22;8882;53.192;8.184;2024-01-30T19:57:18;7.80;99.90
17529;DHT22;8882;53.192;8.184;2024-01-30T19:59:43;7.80;99.90
17529;DHT22;8882;53.192;8.184;2024-01-30T20:02:09;7.70;99.90
17529;DHT22;8882;53.192;8.184;2024-01-30T20:04:35;7.70;99.90
17529;DHT22;8882;53.192;8.184;2024-01-30T20:07:01;7.80;99.90
17529;DHT22;8882;53.192;8.184;2024-01-30T20:09:26;7.70;99.90
17529;DHT22;8882;53.192;8.184;2024-01-30T20:11:52;7.70;99.90
17529;DHT22;8882;53.192;8.184;2024-01-30T20:14:17;7.70;99.90
17529;DHT22;8882;53.192;8.184;2024-01-30T20:16:43;7.60;99.90
17529;DHT22;8882;53.192;8.184;2024-01-30T20:19:09;7.50;99.90
17529;DHT22;8882;53.192;8.184;2024-01-30T20:21:36;7.40;99.90
17529;DHT22;8882;53.192;8.184;2024-01-30T20:24:05;7.40;99.90
17529;DHT22;8882;53.192;8.184;2024-01-30T20:26:32;7.40;99.90
17529;DHT22;8882;53.192;8.184;2024-01-30T20:28:58;7.40;99.90
17529;DHT22;8882;53.192;8.184;2024-01-30T20:31:25;7.40;99.90
17529;DHT22;8882;53.192;8.184;2024-01-30T20:33:51;7.30;99.90
17529;DHT22;8882;53.192;8.184;2024-01-30T20:36:19;7.30;99.90
17529;DHT22;8882;53.192;8.184;2024-01-30T20:38:46;7.30;99.90
17529;DHT22;8882;53.192;8.184;2024-01-30T20:41:12;7.30;99.90
17529;DHT22;8882;53.192;8.184;2024-01-30T20:43:42;7.30;99.90
17529;DHT22;8882;53.192;8.184;2024-01-30T20:46:08;7.30;99.90
17529;DHT22;8882;53.192;8.184;2024-01-30T20:48:34;7.30;99.90
17529;DHT22;8882;53.192;8.184;2024-01-30T20:51:00;7.30;99.90
17529;DHT22;8882;53.192;8.184;2024-01-30T20:53:25;7.30;99.90
17529;DHT22;8882;53.192;8.184;2024-01-30T20:55:51;7.20;99.90
17529;DHT22;8882;53.192;8.184;2024-01-30T20:58:16;7.20;99.90
17529;DHT22;8882;53.192;8.184;2024-01-30T21:00:42;7.20;99.90
17529;DHT22;8882;53.192;8.184;2024-01-30T21:03:07;7.10;99.90
17529;DHT22;8882;53.192;8.184;2024-01-30T21:05:33;7.10;99.90
17529;DHT22;8882;53.192;8.184;2024-01-30T21:07:58;7.10;99.90